createdAt,value
2023-01-22T00:01:02.850Z,29.65
2023-01-22T00:03:29.957Z,29.85
2023-01-22T00:05:56.926Z,28.77
2023-01-22T00:08:23.901Z,27.42
2023-01-22T00:10:51.495Z,28.02
2023-01-22T00:13:21.227Z,27.80
2023-01-22T00:15:48.450Z,29.35
2023-01-22T00:18:15.701Z,28.75
2023-01-22T00:20:47.150Z,27.90
2023-01-22T00:23:14.216Z,28.40
2023-01-22T00:25:41.166Z,27.67
2023-01-22T00:28:08.442Z,28.40
2023-01-22T00:30:36.798Z,29.38
2023-01-22T00:33:04.084Z,29.58
2023-01-22T00:35:31.151Z,29.40
2023-01-22T00:37:58.083Z,28.48
2023-01-22T00:40:25.162Z,29.67
2023-01-22T00:42:52.083Z,28.75
2023-01-22T00:45:18.986Z,28.83
2023-01-22T00:47:47.311Z,29.17
2023-01-22T00:50:14.259Z,28.50
2023-01-22T00:52:41.203Z,27.88
2023-01-22T00:55:08.968Z,27.85
2023-01-22T00:57:35.861Z,27.95
2023-01-22T01:00:02.859Z,27.77
2023-01-22T01:02:29.814Z,26.92
2023-01-22T01:04:58.128Z,26.88
2023-01-22T01:07:25.049Z,26.63
2023-01-22T01:09:52.013Z,26.00
2023-01-22T01:12:18.968Z,27.30
2023-01-22T01:14:45.899Z,26.77
2023-01-22T01:17:12.919Z,26.52
2023-01-22T01:19:39.865Z,27.13
2023-01-22T01:22:08.246Z,28.70
2023-01-22T01:24:35.247Z,27.40
2023-01-22T01:27:02.400Z,28.77
2023-01-22T01:29:29.346Z,27.80
2023-01-22T01:31:56.309Z,27.85
2023-01-22T01:34:23.275Z,28.05
2023-01-22T01:36:50.250Z,27.40
2023-01-22T01:39:18.730Z,26.85
2023-01-22T01:41:45.767Z,25.42
2023-01-22T01:44:15.254Z,27.42
2023-01-22T01:46:46.977Z,27.08
2023-01-22T01:49:25.246Z,26.88
2023-01-22T01:51:54.551Z,27.50
2023-01-22T01:54:23.012Z,26.73
2023-01-22T01:56:52.823Z,27.58
2023-01-22T01:59:21.654Z,27.35
2023-01-22T02:01:52.671Z,27.27
2023-01-22T02:04:26.799Z,26.00
2023-01-22T02:07:00.800Z,25.20
2023-01-22T02:09:35.954Z,18.60
2023-01-22T02:12:10.793Z,25.67
2023-01-22T02:14:41.275Z,22.90
2023-01-22T02:17:15.818Z,26.10
2023-01-22T02:19:43.015Z,26.30
2023-01-22T02:22:20.795Z,26.27
2023-01-22T02:24:47.731Z,26.23
2023-01-22T02:27:21.803Z,27.17
2023-01-22T02:29:48.874Z,20.40
2023-01-22T02:32:28.817Z,26.65
2023-01-22T02:34:56.082Z,26.23
2023-01-22T02:37:31.011Z,27.27
2023-01-22T02:39:57.949Z,25.35
2023-01-22T02:42:31.767Z,26.58
2023-01-22T02:44:58.724Z,27.17
2023-01-22T02:47:31.804Z,27.52
2023-01-22T02:49:58.770Z,27.48
2023-01-22T02:52:33.816Z,26.67
2023-01-22T02:57:36.808Z,26.70
2023-01-22T03:00:04.976Z,26.95
2023-01-22T03:02:38.877Z,27.17
2023-01-22T03:05:06.477Z,27.40
2023-01-22T03:07:41.787Z,25.92
2023-01-22T03:10:14.027Z,27.30
2023-01-22T03:12:47.805Z,27.63
2023-01-22T03:15:14.822Z,26.60
2023-01-22T03:17:48.784Z,27.80
2023-01-22T03:20:16.198Z,28.02
2023-01-22T03:22:50.831Z,27.50
2023-01-22T03:25:17.765Z,28.38
2023-01-22T03:27:51.798Z,28.45
2023-01-22T03:30:19.070Z,27.27
2023-01-22T03:32:58.789Z,28.88
2023-01-22T03:35:25.771Z,28.63
2023-01-22T03:38:00.806Z,31.00
2023-01-22T03:43:00.827Z,30.60
2023-01-22T03:45:27.774Z,30.40
2023-01-22T03:48:01.771Z,31.08
2023-01-22T03:50:28.950Z,32.70
2023-01-22T03:53:04.814Z,31.77
2023-01-22T03:55:31.734Z,32.17
2023-01-22T03:58:04.819Z,32.00
2023-01-22T04:00:31.783Z,33.53
2023-01-22T04:03:04.807Z,32.50
2023-01-22T04:05:31.755Z,32.28
2023-01-22T04:08:06.822Z,32.92
2023-01-22T04:10:33.796Z,32.03
2023-01-22T04:13:06.783Z,32.15
2023-01-22T04:15:33.695Z,31.42
2023-01-22T04:18:06.938Z,31.33
2023-01-22T04:20:33.939Z,32.60
2023-01-22T04:23:08.813Z,31.58
2023-01-22T04:25:36.414Z,32.17
2023-01-22T04:28:10.805Z,31.38
2023-01-22T04:30:37.919Z,24.75
2023-01-22T04:33:11.794Z,31.20
2023-01-22T04:35:39.115Z,29.73
2023-01-22T04:38:15.804Z,32.38
2023-01-22T04:40:42.741Z,30.08
2023-01-22T04:43:16.831Z,30.70
2023-01-22T04:45:43.898Z,30.07
2023-01-22T04:48:17.826Z,28.60
2023-01-22T04:50:46.330Z,29.23
2023-01-22T04:53:21.823Z,29.45
2023-01-22T04:55:48.774Z,30.60
2023-01-22T04:58:15.725Z,28.85
2023-01-22T05:00:48.835Z,29.50
2023-01-22T05:03:15.809Z,30.25
2023-01-22T05:05:48.806Z,28.92
2023-01-22T05:08:17.210Z,29.20
2023-01-22T05:10:50.791Z,30.67
2023-01-22T05:13:17.754Z,31.55
2023-01-22T05:15:50.843Z,31.75
2023-01-22T05:18:17.860Z,31.67
2023-01-22T05:20:50.829Z,30.70
2023-01-22T05:23:19.161Z,33.20
2023-01-22T05:25:56.825Z,32.15
2023-01-22T05:28:23.722Z,33.20
2023-01-22T05:30:56.882Z,33.75
2023-01-22T05:33:23.866Z,34.20
2023-01-22T05:36:03.019Z,33.47
2023-01-22T05:38:31.439Z,33.97
2023-01-22T05:41:05.031Z,34.00
2023-01-22T05:43:32.012Z,33.53
2023-01-22T05:46:06.852Z,33.03
2023-01-22T05:48:33.872Z,32.65
2023-01-22T05:51:09.857Z,32.03
2023-01-22T05:53:38.234Z,32.65
2023-01-22T05:56:12.820Z,31.45
2023-01-22T05:58:39.788Z,31.40
2023-01-22T06:01:14.007Z,30.90
2023-01-22T06:03:40.972Z,29.77
2023-01-22T06:06:17.824Z,29.88
2023-01-22T06:08:46.767Z,29.58
2023-01-22T06:11:21.810Z,28.35
2023-01-22T06:16:21.803Z,24.90
2023-01-22T06:18:48.801Z,27.23
2023-01-22T06:21:21.787Z,20.80
2023-01-22T06:23:50.115Z,20.52
2023-01-22T06:26:23.873Z,20.83
2023-01-22T06:28:50.807Z,19.65
2023-01-22T06:31:17.814Z,18.55
2023-01-22T06:33:51.815Z,18.90
2023-01-22T06:36:18.743Z,19.75
2023-01-22T06:38:51.848Z,20.67
2023-01-22T06:41:20.269Z,19.30
2023-01-22T06:43:53.971Z,19.15
2023-01-22T06:46:21.031Z,20.08
2023-01-22T06:48:54.832Z,20.45
2023-01-22T06:51:21.891Z,19.77
2023-01-22T06:53:55.809Z,19.10
2023-01-22T06:56:24.101Z,19.25
2023-01-22T06:58:57.821Z,19.00
2023-01-22T07:01:24.830Z,18.42
2023-01-22T07:03:57.891Z,19.05
2023-01-22T07:06:24.813Z,18.77
2023-01-22T07:08:57.863Z,18.95
2023-01-22T07:11:26.356Z,19.00
2023-01-22T07:13:59.848Z,18.35
2023-01-22T07:16:26.776Z,18.63
2023-01-22T07:18:59.837Z,20.23
2023-01-22T07:21:26.910Z,19.02
2023-01-22T07:24:00.815Z,18.95
2023-01-22T07:26:29.130Z,20.40
2023-01-22T07:29:02.805Z,20.48
2023-01-22T07:31:29.781Z,20.10
2023-01-22T07:34:02.808Z,19.00
2023-01-22T07:36:29.955Z,20.08
2023-01-22T07:39:03.847Z,20.90
2023-01-22T07:41:32.475Z,21.05
2023-01-22T07:44:05.862Z,20.65
2023-01-22T07:46:34.161Z,20.17
2023-01-22T07:49:07.869Z,22.10
2023-01-22T07:51:34.918Z,20.98
2023-01-22T07:54:08.820Z,22.15
2023-01-22T07:56:37.145Z,21.13
2023-01-22T07:59:10.819Z,22.58
2023-01-22T08:01:37.794Z,24.10
2023-01-22T08:04:11.843Z,20.65
2023-01-22T08:06:38.861Z,20.57
2023-01-22T08:09:12.833Z,22.08
2023-01-22T08:11:41.159Z,21.50
2023-01-22T08:14:14.811Z,20.83
2023-01-22T08:16:41.784Z,21.25
2023-01-22T08:19:16.009Z,20.95
2023-01-22T08:21:42.990Z,22.63
2023-01-22T08:24:16.849Z,22.52
2023-01-22T08:26:45.206Z,23.63
2023-01-22T08:29:18.840Z,23.98
2023-01-22T08:31:46.027Z,24.42
2023-01-22T08:34:19.849Z,23.38
2023-01-22T08:36:46.903Z,24.58
2023-01-22T08:39:20.857Z,23.80
2023-01-22T08:41:49.185Z,23.40
2023-01-22T08:44:22.832Z,23.30
2023-01-22T08:46:49.888Z,23.98
2023-01-22T08:49:23.883Z,23.38
2023-01-22T08:51:50.839Z,23.15
2023-01-22T08:54:24.883Z,22.00
2023-01-22T08:56:53.912Z,17.33
2023-01-22T08:59:30.663Z,23.20
2023-01-22T09:01:58.453Z,22.65
2023-01-22T09:04:31.849Z,21.42
2023-01-22T09:06:58.802Z,22.35
2023-01-22T09:09:31.835Z,21.95
2023-01-22T09:12:00.282Z,20.70
2023-01-22T09:14:33.859Z,21.50
2023-01-22T09:17:01.042Z,22.65
2023-01-22T09:19:34.818Z,21.80
2023-01-22T09:22:01.805Z,22.48
2023-01-22T09:24:35.882Z,23.65
2023-01-22T09:27:04.286Z,22.40
2023-01-22T09:29:37.845Z,22.80
2023-01-22T09:32:07.563Z,21.88
2023-01-22T09:34:40.876Z,22.67
2023-01-22T09:37:09.132Z,23.13
2023-01-22T09:39:36.077Z,22.13
2023-01-22T09:42:06.269Z,22.60
2023-01-22T09:44:36.495Z,22.10
2023-01-22T09:47:06.930Z,23.08
2023-01-22T09:49:38.292Z,23.33
2023-01-22T09:52:06.367Z,23.27
2023-01-22T09:54:34.010Z,48.20
2023-01-22T09:57:04.876Z,133.68
2023-01-22T09:59:39.181Z,121.20
2023-01-22T10:02:20.904Z,176.25
2023-01-22T10:04:52.351Z,77.70
2023-01-22T10:07:25.738Z,137.15
2023-01-22T10:09:55.430Z,145.18
2023-01-22T10:12:27.212Z,233.80
2023-01-22T10:14:54.232Z,158.27
2023-01-22T10:17:24.675Z,59.22
2023-01-22T10:19:56.057Z,49.92
2023-01-22T10:22:25.005Z,118.70
2023-01-22T10:24:52.810Z,30.67
2023-01-22T10:27:22.695Z,32.80
2023-01-22T10:30:01.133Z,83.20
2023-01-22T10:32:30.517Z,63.88
2023-01-22T10:35:00.326Z,77.72
2023-01-22T10:37:27.642Z,105.53
2023-01-22T10:39:57.948Z,34.08
2023-01-22T10:42:26.493Z,48.22
2023-01-22T10:44:58.081Z,130.93
2023-01-22T10:47:26.488Z,147.70
2023-01-22T10:50:04.576Z,45.25
2023-01-22T10:52:36.404Z,25.83
2023-01-22T10:55:04.895Z,28.05
2023-01-22T10:57:35.472Z,21.17
2023-01-22T11:00:20.602Z,21.60
2023-01-22T11:02:49.534Z,20.30
2023-01-22T11:05:19.012Z,34.85
2023-01-22T11:07:47.753Z,23.95
2023-01-22T11:10:22.817Z,51.17
2023-01-22T11:12:53.718Z,41.13
2023-01-22T11:15:30.443Z,41.83
2023-01-22T11:18:01.182Z,25.95
2023-01-22T11:20:32.276Z,47.53
2023-01-22T11:23:23.954Z,28.50
2023-01-22T11:26:01.220Z,25.58
2023-01-22T11:28:37.026Z,23.00
2023-01-22T11:31:18.008Z,22.83
2023-01-22T11:34:06.000Z,20.85
2023-01-22T11:36:36.477Z,21.13
2023-01-22T11:39:12.150Z,21.35
2023-01-22T11:41:54.412Z,21.20
2023-01-22T11:44:34.528Z,22.10
2023-01-22T11:47:19.803Z,21.95
2023-01-22T11:50:00.740Z,20.80
2023-01-22T11:52:44.216Z,20.00
2023-01-22T11:55:25.033Z,19.50
2023-01-22T11:58:01.645Z,22.25
2023-01-22T12:00:41.858Z,21.55
2023-01-22T12:03:44.828Z,23.88
2023-01-22T12:06:26.933Z,17.23
2023-01-22T12:09:05.784Z,23.98
2023-01-22T12:11:53.165Z,27.67
2023-01-22T12:14:42.730Z,63.17
2023-01-22T12:17:22.328Z,24.27
2023-01-22T12:20:26.979Z,24.20
2023-01-22T12:22:59.422Z,67.00
2023-01-22T12:25:35.732Z,92.90
2023-01-22T12:28:12.012Z,60.28
2023-01-22T12:30:50.101Z,24.10
2023-01-22T12:33:22.259Z,20.00
2023-01-22T12:35:52.917Z,18.85
2023-01-22T12:38:35.093Z,26.38
2023-01-22T12:41:36.441Z,29.65
2023-01-22T12:44:15.412Z,47.50
2023-01-22T12:46:52.744Z,40.45
2023-01-22T12:49:19.805Z,24.80
2023-01-22T12:51:50.058Z,34.03
2023-01-22T12:54:20.247Z,25.60
2023-01-22T12:56:48.033Z,26.63
2023-01-22T12:59:42.431Z,35.45
2023-01-22T13:02:30.879Z,83.63
2023-01-22T13:05:10.568Z,85.18
2023-01-22T13:07:40.429Z,68.03
2023-01-22T13:10:24.566Z,41.88
2023-01-22T13:12:53.434Z,33.65
2023-01-22T13:15:23.268Z,31.17
2023-01-22T13:18:06.217Z,22.33
2023-01-22T13:20:36.738Z,21.33
2023-01-22T13:23:06.478Z,19.80
2023-01-22T13:25:33.802Z,21.25
2023-01-22T13:28:01.569Z,49.60
2023-01-22T13:30:29.620Z,28.23
2023-01-22T13:33:04.635Z,21.92
2023-01-22T13:37:58.365Z,20.20
2023-01-22T13:40:28.344Z,19.85
2023-01-22T13:42:56.368Z,19.67
2023-01-22T13:45:30.869Z,43.65
2023-01-22T13:47:59.853Z,80.60
2023-01-22T13:50:29.188Z,45.65
2023-01-22T13:52:57.773Z,27.52
2023-01-22T13:55:27.844Z,38.53
2023-01-22T13:57:56.436Z,29.02
2023-01-22T14:00:26.507Z,32.00
2023-01-22T14:02:53.865Z,36.53
2023-01-22T14:05:23.347Z,29.67
2023-01-22T14:07:51.658Z,24.75
2023-01-22T14:10:21.155Z,34.30
2023-01-22T14:13:01.323Z,22.13
2023-01-22T14:15:28.998Z,20.52
2023-01-22T14:18:08.648Z,64.63
2023-01-22T14:20:38.082Z,23.23
2023-01-22T14:23:05.089Z,24.95
2023-01-22T14:25:32.220Z,26.90
2023-01-22T14:28:00.797Z,31.95
2023-01-22T14:30:27.926Z,28.42
2023-01-22T14:32:55.158Z,22.95
2023-01-22T14:35:24.160Z,22.10
2023-01-22T14:37:52.078Z,41.53
2023-01-22T14:40:21.250Z,37.63
2023-01-22T14:42:48.962Z,70.07
2023-01-22T14:45:19.431Z,86.97
2023-01-22T14:47:50.195Z,78.55
2023-01-22T14:50:17.965Z,44.30
2023-01-22T14:52:45.297Z,25.23
2023-01-22T14:55:12.435Z,28.73
2023-01-22T14:57:39.386Z,25.60
2023-01-22T15:00:07.988Z,23.48
2023-01-22T15:02:36.282Z,25.60
2023-01-22T15:05:03.287Z,24.33
2023-01-22T15:07:30.252Z,25.40
2023-01-22T15:09:57.279Z,23.58
2023-01-22T15:12:24.302Z,24.65
2023-01-22T15:14:51.297Z,42.60
2023-01-22T15:17:18.268Z,53.58
2023-01-22T15:19:46.617Z,49.45
2023-01-22T15:22:13.873Z,44.25
2023-01-22T15:24:40.896Z,33.75
2023-01-22T15:27:08.259Z,30.63
2023-01-22T15:29:35.558Z,36.80
2023-01-22T15:32:02.829Z,33.00
2023-01-22T15:34:29.909Z,28.35
2023-01-22T15:36:58.281Z,24.15
2023-01-22T15:39:25.444Z,24.55
2023-01-22T15:41:52.400Z,24.20
2023-01-22T15:44:19.430Z,27.05
2023-01-22T15:46:46.502Z,22.63
2023-01-22T15:49:13.750Z,22.55
2023-01-22T15:51:41.580Z,23.65
2023-01-22T15:54:14.526Z,23.52
2023-01-22T15:56:42.028Z,22.38
2023-01-22T15:59:10.116Z,21.70
2023-01-22T16:01:37.183Z,22.38
2023-01-22T16:04:04.855Z,61.95
2023-01-22T16:06:33.375Z,38.40
2023-01-22T16:09:02.015Z,26.38
2023-01-22T16:11:30.498Z,25.88
2023-01-22T16:13:57.448Z,25.58
2023-01-22T16:16:26.011Z,24.48
2023-01-22T16:18:53.676Z,25.52
2023-01-22T16:21:22.184Z,23.80
2023-01-22T16:23:53.274Z,25.48
2023-01-22T16:26:22.358Z,25.08
2023-01-22T16:28:52.964Z,24.40
2023-01-22T16:31:22.281Z,24.83
2023-01-22T16:33:52.960Z,27.58
2023-01-22T16:36:22.001Z,25.83
2023-01-22T16:38:49.285Z,30.05
2023-01-22T16:41:25.626Z,30.55
2023-01-22T16:43:57.412Z,27.90
2023-01-22T16:46:26.514Z,23.10
2023-01-22T16:48:59.122Z,24.00
2023-01-22T16:51:27.985Z,24.60
2023-01-22T16:53:55.286Z,27.55
2023-01-22T16:56:22.301Z,24.27
2023-01-22T16:58:49.541Z,24.50
2023-01-22T17:01:18.054Z,24.05
2023-01-22T17:03:45.312Z,23.70
2023-01-22T17:06:21.936Z,23.98
2023-01-22T17:08:48.993Z,22.73
2023-01-22T17:11:17.082Z,22.45
2023-01-22T17:13:44.603Z,22.30
2023-01-22T17:16:11.742Z,23.08
2023-01-22T17:18:40.228Z,23.67
2023-01-22T17:21:08.687Z,23.83
2023-01-22T17:23:36.150Z,23.70
2023-01-22T17:26:06.581Z,23.40
2023-01-22T17:28:34.014Z,24.08
2023-01-22T17:31:01.289Z,24.98
2023-01-22T17:33:29.257Z,24.10
2023-01-22T17:36:00.040Z,23.33
2023-01-22T17:38:27.643Z,26.35
2023-01-22T17:40:55.207Z,26.90
2023-01-22T17:43:22.471Z,27.13
2023-01-22T17:45:49.650Z,23.58
2023-01-22T17:48:16.781Z,22.98
2023-01-22T17:50:43.770Z,24.50
2023-01-22T17:53:12.172Z,23.95
2023-01-22T17:55:39.144Z,25.02
2023-01-22T17:58:06.247Z,23.20
2023-01-22T18:00:33.274Z,25.38
2023-01-22T18:03:00.369Z,25.48
2023-01-22T18:05:27.430Z,25.30
2023-01-22T18:07:54.460Z,23.90
2023-01-22T18:10:22.845Z,24.48
2023-01-22T18:12:50.111Z,25.33
2023-01-22T18:15:18.665Z,24.85
2023-01-22T18:17:46.470Z,24.33
2023-01-22T18:20:14.291Z,25.42
2023-01-22T18:22:41.333Z,24.15
2023-01-22T18:25:09.877Z,24.88
2023-01-22T18:27:38.378Z,25.75
2023-01-22T18:30:06.949Z,24.73
2023-01-22T18:32:33.940Z,26.50
2023-01-22T18:35:00.973Z,26.42
2023-01-22T18:37:27.966Z,26.50
2023-01-22T18:39:54.996Z,25.85
2023-01-22T18:42:22.028Z,24.15
2023-01-22T18:44:50.393Z,26.42
2023-01-22T18:47:17.573Z,25.75
2023-01-22T18:49:44.907Z,25.55
2023-01-22T18:52:12.085Z,24.92
2023-01-22T18:54:39.127Z,24.73
2023-01-22T18:57:06.153Z,24.65
2023-01-22T18:59:33.129Z,24.48
2023-01-22T19:02:01.668Z,23.92
2023-01-22T19:04:28.745Z,26.10
2023-01-22T19:06:55.780Z,26.70
2023-01-22T19:09:22.963Z,25.92
2023-01-22T19:11:50.255Z,25.38
2023-01-22T19:14:19.335Z,23.85
2023-01-22T19:16:48.872Z,25.08
2023-01-22T19:19:17.219Z,25.17
2023-01-22T19:21:45.357Z,25.92
2023-01-22T19:24:14.187Z,26.92
2023-01-22T19:26:42.333Z,25.50
2023-01-22T19:29:13.430Z,26.67
2023-01-22T19:31:42.094Z,27.23
2023-01-22T19:34:11.938Z,26.70
2023-01-22T19:36:40.288Z,25.00
2023-01-22T19:39:10.942Z,28.60
2023-01-22T19:41:38.240Z,26.63
2023-01-22T19:44:05.832Z,27.15
2023-01-22T19:46:32.869Z,27.52
2023-01-22T19:49:00.062Z,27.17
2023-01-22T19:51:27.584Z,28.20
2023-01-22T19:53:56.472Z,27.60
2023-01-22T19:56:25.135Z,28.02
2023-01-22T19:58:54.018Z,29.67
2023-01-22T20:01:21.978Z,28.58
2023-01-22T20:03:49.675Z,28.98
2023-01-22T20:06:17.896Z,29.08
2023-01-22T20:08:45.431Z,28.27
2023-01-22T20:11:14.795Z,28.13
2023-01-22T20:13:43.251Z,29.67
2023-01-22T20:16:17.927Z,29.88
2023-01-22T20:18:45.011Z,29.40
2023-01-22T20:21:12.064Z,28.83
2023-01-22T20:23:39.090Z,32.97
2023-01-22T20:26:07.574Z,31.13
2023-01-22T20:28:36.472Z,31.58
2023-01-22T20:31:05.795Z,32.33
2023-01-22T20:33:33.209Z,30.50
2023-01-22T20:36:01.933Z,32.50
2023-01-22T20:38:30.253Z,29.73
2023-01-22T20:40:59.772Z,28.13
2023-01-22T20:43:26.864Z,29.77
2023-01-22T20:46:00.623Z,28.63
2023-01-22T20:48:28.333Z,28.92
2023-01-22T20:50:55.385Z,31.67
2023-01-22T20:53:22.552Z,30.10
2023-01-22T20:55:58.060Z,32.08
2023-01-22T20:58:25.142Z,31.80
2023-01-22T21:00:52.243Z,32.45
2023-01-22T21:03:21.068Z,31.08
2023-01-22T21:05:48.034Z,30.60
2023-01-22T21:08:15.071Z,30.15
2023-01-22T21:10:42.308Z,31.15
2023-01-22T21:13:09.267Z,31.15
2023-01-22T21:15:36.279Z,32.40
2023-01-22T21:18:03.322Z,29.80
2023-01-22T21:20:31.677Z,30.25
2023-01-22T21:22:58.709Z,29.80
2023-01-22T21:25:25.704Z,28.67
2023-01-22T21:27:52.722Z,29.42
2023-01-22T21:30:20.063Z,30.35
2023-01-22T21:32:50.702Z,30.05
2023-01-22T21:35:17.915Z,29.90
2023-01-22T21:37:46.479Z,31.42
2023-01-22T21:40:13.924Z,31.42
2023-01-22T21:42:41.608Z,30.55
2023-01-22T21:45:09.866Z,28.98
2023-01-22T21:47:36.909Z,29.90
2023-01-22T21:50:04.272Z,29.55
2023-01-22T21:52:31.326Z,30.98
2023-01-22T21:54:59.906Z,30.30
2023-01-22T21:57:27.109Z,31.80
2023-01-22T21:59:56.932Z,30.50
2023-01-22T22:02:23.896Z,30.00
2023-01-22T22:04:50.985Z,29.27
2023-01-22T22:07:18.160Z,30.30
2023-01-22T22:09:45.193Z,28.73
2023-01-22T22:12:13.589Z,30.38
2023-01-22T22:14:40.593Z,30.75
2023-01-22T22:17:07.733Z,29.45
2023-01-22T22:19:35.046Z,29.73
2023-01-22T22:22:02.030Z,31.10
2023-01-22T22:24:29.079Z,29.60
2023-01-22T22:26:56.050Z,29.90
2023-01-22T22:29:24.436Z,28.00
2023-01-22T22:31:51.418Z,29.40
2023-01-22T22:34:18.490Z,27.10
2023-01-22T22:36:45.505Z,28.35
2023-01-22T22:39:12.616Z,31.33
2023-01-22T22:41:39.789Z,31.40
2023-01-22T22:44:07.574Z,28.85
2023-01-22T22:46:37.707Z,28.90
2023-01-22T22:49:05.120Z,28.02
2023-01-22T22:51:34.279Z,27.70
2023-01-22T22:54:05.132Z,29.58
2023-01-22T22:56:32.304Z,28.38
2023-01-22T22:59:00.415Z,29.02
2023-01-22T23:01:28.250Z,30.02
2023-01-22T23:03:56.711Z,30.75
2023-01-22T23:06:25.606Z,31.92
2023-01-22T23:08:54.258Z,29.88
2023-01-22T23:11:23.753Z,30.08
2023-01-22T23:13:51.571Z,30.88
2023-01-22T23:16:20.123Z,29.98
2023-01-22T23:18:48.510Z,31.30
2023-01-22T23:21:20.383Z,30.92
2023-01-22T23:23:47.582Z,31.00
2023-01-22T23:26:16.489Z,29.55
2023-01-22T23:28:43.676Z,31.90
2023-01-22T23:31:13.094Z,30.45
2023-01-22T23:33:41.119Z,33.78
2023-01-22T23:36:11.245Z,31.42
2023-01-22T23:38:40.254Z,32.22
2023-01-22T23:41:09.334Z,30.48
2023-01-22T23:43:36.500Z,30.83
2023-01-22T23:46:07.912Z,31.27
2023-01-22T23:48:34.899Z,30.50
2023-01-22T23:51:02.023Z,32.60
2023-01-22T23:53:29.257Z,32.08
2023-01-22T23:56:00.655Z,30.85
2023-01-22T23:58:28.181Z,30.10
